Time;durP1;ratioP1;P1;durP2;ratioP2;P2;SDS_P1;SDS_P2;PMS_P1;PMS_P2;Temp;Humidity;BMP_temperature;BMP_pressure;BME280_temperature;BME280_humidity;BME280_pressure;Samples;Min_cycle;Max_cycle;Signal;HPM_P1;HPM_P2
2021/06/27 00:01:38;;;;;;;2.53;2.08;;;589.40;1817.60;;;;;;5055237;28;20025;-63
2021/06/27 00:04:04;;;;;;;2.63;1.83;;;589.40;1817.60;;;;;;5055065;28;20028;-60
2021/06/27 00:06:30;;;;;;;2.80;1.90;;;589.40;1817.60;;;;;;5054910;28;20437;-60
2021/06/27 00:08:56;;;;;;;2.92;1.92;;;589.30;1843.20;;;;;;5055037;28;20028;-61
2021/06/27 00:11:24;;;;;;;2.58;2.10;;;589.30;1843.20;;;;;;5054106;28;20021;-60
2021/06/27 00:13:50;;;;;;;2.70;2.00;;;589.20;1843.20;;;;;;5060935;28;20044;-61
2021/06/27 00:16:17;;;;;;;3.00;2.03;;;589.20;1868.80;;;;;;5054802;28;20478;-61
2021/06/27 00:18:43;;;;;;;2.83;2.03;;;589.10;1868.80;;;;;;5054633;28;20037;-61
2021/06/27 00:21:12;;;;;;;4.13;1.80;;;589.00;1894.40;;;;;;5054376;28;20040;-61
2021/06/27 00:23:42;;;;;;;6.28;1.95;;;589.10;1894.40;;;;;;5054162;28;20429;-61
2021/06/27 00:26:10;;;;;;;2.30;2.00;;;589.00;1894.40;;;;;;5054758;28;20029;-61
2021/06/27 00:28:36;;;;;;;3.50;2.10;;;589.00;1894.40;;;;;;5054631;28;20025;-61
2021/06/27 00:31:03;;;;;;;3.35;2.03;;;589.00;1894.40;;;;;;5055065;28;20045;-62
2021/06/27 00:33:30;;;;;;;3.28;1.90;;;589.00;1894.40;;;;;;5055385;28;20033;-61
2021/06/27 00:35:56;;;;;;;4.10;2.13;;;589.00;1894.40;;;;;;5054955;28;20056;-60
2021/06/27 00:38:24;;;;;;;3.72;2.13;;;589.00;1894.40;;;;;;5053541;28;20021;-61
2021/06/27 00:40:51;;;;;;;3.13;2.03;;;589.00;1894.40;;;;;;5062322;28;20064;-61
2021/06/27 00:43:17;;;;;;;3.08;2.13;;;588.90;1894.40;;;;;;5058787;28;20021;-60
2021/06/27 00:45:43;;;;;;;2.88;1.90;;;588.90;1894.40;;;;;;5054198;28;20398;-61
2021/06/27 00:48:09;;;;;;;3.45;2.10;;;588.90;1920.00;;;;;;5054189;28;20447;-61
2021/06/27 00:50:41;;;;;;;2.78;2.17;;;588.90;1894.40;;;;;;5053957;28;20049;-60
2021/06/27 00:53:08;;;;;;;3.00;2.00;;;588.80;1894.40;;;;;;5054088;28;20083;-60
2021/06/27 00:55:34;;;;;;;2.58;2.03;;;588.80;1894.40;;;;;;5054140;28;20032;-60
2021/06/27 00:58:00;;;;;;;4.72;2.10;;;588.80;1920.00;;;;;;5053916;28;20029;-60
2021/06/27 01:00:32;;;;;;;4.22;2.45;;;588.80;1894.40;;;;;;5053768;28;20037;-60
2021/06/27 01:02:58;;;;;;;2.70;2.30;;;564.10;1894.40;;;;;;5054076;28;20021;-60
2021/06/27 01:05:30;;;;;;;3.10;2.35;;;564.10;1894.40;;;;;;5053756;28;20021;-61
2021/06/27 01:07:57;;;;;;;2.85;2.13;;;564.10;1894.40;;;;;;5055000;28;20044;-61
2021/06/27 01:10:23;;;;;;;3.67;2.17;;;564.10;1894.40;;;;;;5066204;28;20033;-60
2021/06/27 01:12:49;;;;;;;4.35;2.10;;;564.10;1894.40;;;;;;5060406;28;20064;-61
2021/06/27 01:15:16;;;;;;;2.70;2.20;;;588.80;1894.40;;;;;;5053724;28;20405;-61
2021/06/27 01:17:44;;;;;;;2.83;2.13;;;564.10;1894.40;;;;;;5053696;28;20033;-60
2021/06/27 01:20:13;;;;;;;3.70;2.08;;;564.10;1894.40;;;;;;5053519;28;20466;-60
2021/06/27 01:22:39;;;;;;;4.07;2.20;;;564.10;1894.40;;;;;;5053498;28;20036;-60
2021/06/27 01:25:07;;;;;;;4.50;2.30;;;564.10;1894.40;;;;;;5053736;28;20469;-60
2021/06/27 01:27:33;;;;;;;4.15;2.25;;;564.00;1920.00;;;;;;5053635;28;20026;-60
2021/06/27 01:29:59;;;;;;;3.95;2.50;;;564.00;1894.40;;;;;;5053427;28;20029;-61
2021/06/27 01:32:25;;;;;;;2.90;2.30;;;564.00;1894.40;;;;;;5035811;28;20424;-60
2021/06/27 01:34:51;;;;;;;4.05;2.50;;;564.00;1894.40;;;;;;5053463;28;20351;-60
2021/06/27 01:37:16;;;;;;;3.88;2.20;;;564.00;1894.40;;;;;;5053247;28;20028;-60
2021/06/27 01:39:42;;;;;;;3.00;2.58;;;564.00;1920.00;;;;;;5053428;28;20048;-61
2021/06/27 01:42:08;;;;;;;5.10;2.58;;;564.00;1894.40;;;;;;5053270;28;20047;-61
2021/06/27 01:44:35;;;;;;;4.03;2.50;;;564.00;1945.60;;;;;;5053217;28;20056;-60
2021/06/27 01:47:01;;;;;;;4.28;2.58;;;563.90;1971.20;;;;;;5053257;28;20466;-61
2021/06/27 01:49:27;;;;;;;4.60;2.40;;;563.70;1996.80;;;;;;5053290;28;20104;-62
2021/06/27 01:51:53;;;;;;;3.97;2.53;;;563.70;2022.40;;;;;;5053462;28;20053;-61
2021/06/27 01:54:19;;;;;;;3.03;2.55;;;563.60;2022.40;;;;;;5053414;28;20021;-60
2021/06/27 01:56:45;;;;;;;5.22;2.45;;;563.50;2048.00;;;;;;5053181;28;20091;-61
2021/06/27 01:59:13;;;;;;;2.70;2.30;;;563.50;2073.60;;;;;;5035417;28;20175;-61
2021/06/27 02:01:40;;;;;;;4.32;2.50;;;563.50;2073.60;;;;;;5053342;28;20036;-61
2021/06/27 02:04:07;;;;;;;4.97;2.55;;;563.50;2073.60;;;;;;5053070;28;20025;-60
2021/06/27 02:06:39;;;;;;;3.92;2.75;;;563.40;2099.20;;;;;;5053102;28;20103;-62
2021/06/27 02:09:07;;;;;;;4.78;2.80;;;563.30;2099.20;;;;;;5053048;28;20475;-60
2021/06/27 02:11:34;;;;;;;4.32;2.58;;;538.50;2099.20;;;;;;5053425;28;20025;-60
2021/06/27 02:13:59;;;;;;;6.13;2.70;;;538.30;2150.40;;;;;;5053197;28;20021;-60
2021/06/27 02:16:26;;;;;;;7.78;2.67;;;538.20;2150.40;;;;;;5053001;28;20021;-60
2021/06/27 02:18:52;;;;;;;7.38;2.95;;;538.20;2150.40;;;;;;5053235;28;20425;-60
2021/06/27 02:21:23;;;;;;;5.30;2.55;;;538.10;2176.00;;;;;;5052814;28;20356;-61
2021/06/27 02:23:49;;;;;;;7.18;2.70;;;538.00;2176.00;;;;;;5053159;28;20033;-61
2021/06/27 02:26:15;;;;;;;6.57;2.53;;;538.00;2176.00;;;;;;5053027;28;20021;-61
2021/06/27 02:28:41;;;;;;;4.38;2.40;;;538.00;2176.00;;;;;;5053099;28;20071;-60
2021/06/27 02:31:07;;;;;;;6.28;2.47;;;538.00;2176.00;;;;;;5053162;28;20033;-61
2021/06/27 02:33:34;;;;;;;5.10;2.28;;;538.00;2176.00;;;;;;5052826;28;20458;-61
2021/06/27 02:35:59;;;;;;;5.35;2.35;;;538.10;2176.00;;;;;;5056800;28;20044;-61
2021/06/27 02:38:25;;;;;;;3.00;2.30;;;538.20;2176.00;;;;;;5056506;28;20340;-61
2021/06/27 02:40:54;;;;;;;3.40;2.67;;;538.20;2150.40;;;;;;5056305;28;20041;-61
2021/06/27 02:43:19;;;;;;;5.03;2.58;;;538.20;2124.80;;;;;;5056641;28;20086;-61
2021/06/27 02:45:47;;;;;;;3.88;2.47;;;538.30;2099.20;;;;;;5056716;28;20071;-61
2021/06/27 02:48:12;;;;;;;3.45;2.63;;;538.30;2099.20;;;;;;5056286;28;20054;-61
2021/06/27 02:50:39;;;;;;;4.47;2.70;;;538.30;2099.20;;;;;;5056273;28;20119;-61
2021/06/27 02:53:07;;;;;;;3.85;2.65;;;538.40;2099.20;;;;;;5056162;28;20026;-61
2021/06/27 02:55:33;;;;;;;3.90;2.83;;;538.30;2099.20;;;;;;5056083;28;20478;-62
2021/06/27 02:57:58;;;;;;;3.22;2.70;;;538.40;2099.20;;;;;;5056314;28;20029;-61
2021/06/27 03:00:24;;;;;;;5.28;2.75;;;538.40;2099.20;;;;;;5056051;28;20556;-62
2021/06/27 03:02:50;;;;;;;4.50;2.70;;;538.40;2099.20;;;;;;5056211;28;20021;-61
2021/06/27 03:05:17;;;;;;;3.30;2.78;;;538.50;2099.20;;;;;;5055882;28;20025;-61
2021/06/27 03:07:44;;;;;;;4.38;2.90;;;538.40;2099.20;;;;;;5056115;28;20025;-64
2021/06/27 03:10:12;;;;;;;3.88;2.65;;;538.50;2099.20;;;;;;5056066;28;20100;-61
2021/06/27 03:12:43;;;;;;;5.03;2.72;;;538.50;2099.20;;;;;;5056015;28;20029;-61
2021/06/27 03:15:10;;;;;;;5.63;2.78;;;538.50;2099.20;;;;;;5037999;28;20033;-61
2021/06/27 03:17:36;;;;;;;3.67;2.65;;;538.50;2099.20;;;;;;5055699;28;20112;-61
2021/06/27 03:20:02;;;;;;;3.28;2.70;;;563.20;2124.80;;;;;;5055824;28;20112;-62
2021/06/27 03:22:28;;;;;;;3.15;2.75;;;563.20;2124.80;;;;;;5038015;28;20033;-61
2021/06/27 03:24:54;;;;;;;4.63;2.70;;;563.20;2124.80;;;;;;5055710;28;20071;-61
2021/06/27 03:27:20;;;;;;;5.40;2.90;;;563.30;2124.80;;;;;;5055377;28;20494;-61
2021/06/27 03:29:47;;;;;;;4.25;2.75;;;563.30;2124.80;;;;;;5055806;28;20021;-61
2021/06/27 03:32:13;;;;;;;5.28;2.90;;;563.30;2124.80;;;;;;5055505;28;20029;-61
2021/06/27 03:34:39;;;;;;;6.47;2.85;;;563.30;2124.80;;;;;;5055587;28;20021;-60
2021/06/27 03:37:05;;;;;;;4.93;2.80;;;563.40;2124.80;;;;;;5055539;28;20029;-61
2021/06/27 03:39:30;;;;;;;3.97;2.72;;;563.50;2124.80;;;;;;5055421;28;20429;-61
2021/06/27 03:41:56;;;;;;;5.15;2.92;;;563.50;2099.20;;;;;;5055173;28;20068;-61
2021/06/27 03:44:24;;;;;;;3.50;2.50;;;563.60;2099.20;;;;;;5055174;28;20032;-61
2021/06/27 03:46:50;;;;;;;4.88;2.70;;;563.70;2099.20;;;;;;5054307;28;20017;-61
2021/06/27 03:49:17;;;;;;;4.43;2.60;;;563.80;2099.20;;;;;;5055035;28;20017;-61
2021/06/27 03:51:43;;;;;;;8.00;2.78;;;563.90;2073.60;;;;;;5055073;28;20105;-60
2021/06/27 03:54:09;;;;;;;3.42;2.80;;;564.00;2124.80;;;;;;5055016;28;20029;-60
2021/06/27 03:56:35;;;;;;;2.95;2.65;;;564.00;2073.60;;;;;;5055081;28;20108;-60
2021/06/27 03:59:01;;;;;;;3.95;2.88;;;564.00;2048.00;;;;;;5037327;28;20025;-60
2021/06/27 04:01:27;;;;;;;3.53;2.70;;;564.10;2048.00;;;;;;5054787;28;20498;-60
2021/06/27 04:03:52;;;;;;;3.33;2.80;;;564.10;2022.40;;;;;;5054768;28;20033;-60
2021/06/27 04:06:18;;;;;;;4.97;3.05;;;588.80;2022.40;;;;;;5055096;28;20036;-60
2021/06/27 04:08:44;;;;;;;3.75;2.80;;;588.90;1996.80;;;;;;5054973;28;20421;-60
2021/06/27 04:11:10;;;;;;;4.55;2.85;;;588.90;1996.80;;;;;;5054863;28;20478;-61
2021/06/27 04:13:36;;;;;;;4.25;3.15;;;589.00;1996.80;;;;;;5054780;28;20049;-61
2021/06/27 04:16:03;;;;;;;4.93;2.97;;;589.00;1971.20;;;;;;5054925;28;20417;-60
2021/06/27 04:18:29;;;;;;;4.20;2.88;;;589.00;1971.20;;;;;;5054724;28;20391;-61
2021/06/27 04:20:57;;;;;;;4.45;2.80;;;589.00;1971.20;;;;;;5054655;28;20041;-60
2021/06/27 04:23:24;;;;;;;5.95;2.90;;;589.00;1945.60;;;;;;5054543;28;20044;-61
2021/06/27 04:25:50;;;;;;;3.20;2.90;;;588.90;1971.20;;;;;;5054556;28;20024;-61
2021/06/27 04:28:15;;;;;;;4.93;3.03;;;588.80;1971.20;;;;;;5054537;28;20375;-61
2021/06/27 04:30:42;;;;;;;4.72;2.80;;;588.80;1996.80;;;;;;5054443;28;20111;-61
2021/06/27 04:33:09;;;;;;;6.47;2.92;;;588.90;1996.80;;;;;;5036686;28;20079;-61
2021/06/27 04:35:36;;;;;;;3.65;2.90;;;588.80;1996.80;;;;;;5054343;28;20411;-61
2021/06/27 04:38:07;;;;;;;3.95;2.90;;;588.80;1996.80;;;;;;5054140;28;20021;-61
2021/06/27 04:40:34;;;;;;;6.95;3.00;;;564.10;1996.80;;;;;;5054460;28;20037;-62
2021/06/27 04:42:59;;;;;;;3.33;2.72;;;564.10;2022.40;;;;;;5036248;28;20498;-62
2021/06/27 04:45:25;;;;;;;5.80;3.15;;;564.10;2022.40;;;;;;5054236;28;20063;-62
2021/06/27 04:47:51;;;;;;;4.00;3.10;;;564.10;2022.40;;;;;;5036788;28;20115;-62
2021/06/27 04:50:17;;;;;;;7.22;2.97;;;564.10;2022.40;;;;;;5053943;28;20115;-61
2021/06/27 04:52:43;;;;;;;5.40;2.80;;;564.10;2022.40;;;;;;5054175;28;20477;-62
2021/06/27 04:55:10;;;;;;;4.25;2.70;;;564.10;2022.40;;;;;;5053978;28;20021;-61
2021/06/27 04:57:35;;;;;;;5.70;2.83;;;588.80;2022.40;;;;;;5053758;28;20100;-61
2021/06/27 05:00:04;;;;;;;4.45;2.90;;;588.90;1996.80;;;;;;5054511;28;20112;-61
2021/06/27 05:02:30;;;;;;;4.38;2.90;;;588.90;1996.80;;;;;;5054048;28;20497;-64
2021/06/27 05:04:55;;;;;;;5.65;3.30;;;588.90;1971.20;;;;;;5053670;28;20029;-63
2021/06/27 05:07:22;;;;;;;5.57;3.13;;;589.00;1996.80;;;;;;5035962;28;20486;-62
2021/06/27 05:09:49;;;;;;;5.28;3.17;;;589.00;1996.80;;;;;;5054019;28;20029;-62
2021/06/27 05:12:15;;;;;;;5.00;3.17;;;588.90;1971.20;;;;;;5053783;28;20479;-61
2021/06/27 05:14:41;;;;;;;4.18;3.22;;;589.00;1971.20;;;;;;5053870;28;20025;-61
2021/06/27 05:17:06;;;;;;;5.20;3.50;;;589.10;1971.20;;;;;;5053653;28;20025;-60
2021/06/27 05:19:32;;;;;;;5.18;3.20;;;589.10;1971.20;;;;;;5053479;28;20033;-60
2021/06/27 05:21:58;;;;;;;7.13;3.40;;;589.20;1971.20;;;;;;5053363;28;20036;-61
2021/06/27 05:24:24;;;;;;;8.73;3.45;;;589.30;1971.20;;;;;;5053599;28;20103;-61
2021/06/27 05:26:50;;;;;;;4.65;3.38;;;589.40;1945.60;;;;;;5035907;28;20068;-61
2021/06/27 05:29:15;;;;;;;4.75;3.22;;;589.60;1971.20;;;;;;5053457;28;20029;-60
2021/06/27 05:31:41;;;;;;;6.80;3.90;;;589.60;1945.60;;;;;;5053798;28;20027;-61
2021/06/27 05:34:07;;;;;;;6.53;3.88;;;589.60;1945.60;;;;;;5053468;28;20588;-61
2021/06/27 05:36:39;;;;;;;6.05;4.13;;;589.70;1920.00;;;;;;5053335;28;20052;-60
2021/06/27 05:39:11;;;;;;;5.97;4.00;;;589.70;1920.00;;;;;;5053232;28;20532;-62
2021/06/27 05:41:38;;;;;;;4.88;3.90;;;614.50;1894.40;;;;;;5053355;28;20049;-62
2021/06/27 05:44:06;;;;;;;9.95;4.20;;;614.60;1894.40;;;;;;5053424;28;20017;-61
2021/06/27 05:46:33;;;;;;;6.65;4.10;;;614.70;1894.40;;;;;;5036434;28;20033;-61
2021/06/27 05:48:59;;;;;;;6.78;4.25;;;614.80;1868.80;;;;;;5053160;28;20490;-60
2021/06/27 05:51:25;;;;;;;6.60;4.03;;;614.90;1868.80;;;;;;5053318;28;20051;-60
2021/06/27 05:53:52;;;;;;;4.97;4.20;;;615.10;1868.80;;;;;;5053160;28;20025;-61
2021/06/27 05:56:19;;;;;;;6.60;4.13;;;615.10;1843.20;;;;;;5053314;28;20105;-61
2021/06/27 05:58:46;;;;;;;6.88;4.13;;;615.20;1843.20;;;;;;5053411;28;20025;-61
2021/06/27 06:01:14;;;;;;;6.25;4.45;;;615.20;1843.20;;;;;;5055188;28;20116;-61
2021/06/27 06:03:41;;;;;;;4.97;3.97;;;615.30;1843.20;;;;;;5055225;28;20028;-59
2021/06/27 06:06:10;;;;;;;8.32;4.85;;;640.00;1843.20;;;;;;5055336;28;20020;-60
2021/06/27 06:08:36;;;;;;;5.72;4.25;;;640.00;1843.20;;;;;;5073484;28;20024;-61
2021/06/27 06:11:02;;;;;;;5.80;4.40;;;640.00;1843.20;;;;;;5077199;28;20025;-61
2021/06/27 06:13:28;;;;;;;6.03;4.45;;;640.10;1843.20;;;;;;5077281;28;20017;-60
2021/06/27 06:15:54;;;;;;;5.30;4.60;;;640.10;1843.20;;;;;;5077113;28;20020;-60
2021/06/27 06:18:20;;;;;;;7.20;4.78;;;640.10;1843.20;;;;;;5076859;28;20027;-61
2021/06/27 06:20:46;;;;;;;5.72;4.40;;;640.30;1843.20;;;;;;5076962;28;20375;-61
2021/06/27 06:23:11;;;;;;;6.53;4.28;;;640.40;1843.20;;;;;;5076982;28;20024;-61
2021/06/27 06:25:38;;;;;;;7.72;4.60;;;640.30;1843.20;;;;;;5076984;28;20109;-61
2021/06/27 06:28:04;;;;;;;7.65;4.80;;;640.40;1817.60;;;;;;5077357;28;20098;-62
2021/06/27 06:30:29;;;;;;;6.22;4.55;;;640.50;1817.60;;;;;;5077299;28;20036;-62
2021/06/27 06:32:55;;;;;;;5.35;4.65;;;640.60;1766.40;;;;;;5077068;28;20374;-60
2021/06/27 06:35:21;;;;;;;7.43;4.75;;;640.60;1792.00;;;;;;5076800;28;20044;-61
2021/06/27 06:37:46;;;;;;;7.40;4.60;;;640.80;1792.00;;;;;;5058265;28;20476;-59
2021/06/27 06:40:12;;;;;;;5.55;4.40;;;640.90;1792.00;;;;;;5076847;28;20051;-60
2021/06/27 06:42:38;;;;;;;6.35;4.70;;;640.90;1792.00;;;;;;5076308;28;20049;-60
2021/06/27 06:45:05;;;;;;;6.32;4.47;;;665.60;1792.00;;;;;;5076504;28;20474;-61
2021/06/27 06:47:31;;;;;;;12.10;7.82;;;665.60;1766.40;;;;;;5076845;28;20477;-62
2021/06/27 06:49:57;;;;;;;11.27;6.00;;;665.70;1766.40;;;;;;5076185;28;20020;-60
2021/06/27 06:52:23;;;;;;;6.97;4.78;;;665.80;1766.40;;;;;;5075802;28;20051;-61
2021/06/27 06:54:49;;;;;;;5.25;4.60;;;665.80;1715.20;;;;;;5076465;28;20032;-60
2021/06/27 06:57:16;;;;;;;6.13;4.63;;;665.90;1740.80;;;;;;5076905;28;20016;-61
2021/06/27 06:59:41;;;;;;;6.03;4.75;;;666.00;1740.80;;;;;;5076396;28;20048;-61
2021/06/27 07:02:08;;;;;;;7.35;4.95;;;666.10;1689.60;;;;;;5076363;28;20146;-61
2021/06/27 07:04:34;;;;;;;6.05;4.80;;;666.20;1740.80;;;;;;5075954;28;20351;-63
2021/06/27 07:07:00;;;;;;;7.25;4.82;;;666.30;1715.20;;;;;;5075752;28;20032;-63
2021/06/27 07:09:26;;;;;;;5.80;4.72;;;666.40;1715.20;;;;;;5076043;28;20027;-62
2021/06/27 07:11:51;;;;;;;6.03;4.50;;;666.50;1689.60;;;;;;5075883;28;20420;-62
2021/06/27 07:14:17;;;;;;;5.05;4.35;;;691.20;1715.20;;;;;;5076166;28;20104;-64
2021/06/27 07:16:43;;;;;;;4.65;4.15;;;691.30;1664.00;;;;;;5076006;28;20025;-61
2021/06/27 07:19:09;;;;;;;6.10;4.00;;;691.30;1664.00;;;;;;5075850;28;20020;-60
2021/06/27 07:21:35;;;;;;;6.07;4.07;;;691.40;1664.00;;;;;;5076008;28;20040;-61
2021/06/27 07:24:01;;;;;;;6.88;4.40;;;691.50;1664.00;;;;;;5075752;28;20025;-62
2021/06/27 07:26:27;;;;;;;4.63;3.90;;;691.50;1689.60;;;;;;5075667;28;20082;-61
2021/06/27 07:28:52;;;;;;;4.72;4.00;;;691.60;1664.00;;;;;;5075621;28;20032;-62
2021/06/27 07:31:18;;;;;;;5.65;3.85;;;691.70;1638.40;;;;;;5075655;28;20028;-62
2021/06/27 07:33:44;;;;;;;4.47;4.05;;;691.80;1612.80;;;;;;5057823;28;20021;-66
2021/06/27 07:36:10;;;;;;;5.68;3.75;;;691.80;1587.20;;;;;;5075339;28;20021;-62
2021/06/27 07:38:35;;;;;;;4.47;3.70;;;692.00;1561.60;;;;;;5075526;28;20016;-64
2021/06/27 07:41:01;;;;;;;4.20;3.78;;;692.10;1587.20;;;;;;5074793;28;20399;-63
2021/06/27 07:43:27;;;;;;;5.13;4.05;;;716.80;1587.20;;;;;;5057668;28;20083;-62
2021/06/27 07:45:53;;;;;;;5.40;3.80;;;716.90;1638.40;;;;;;5075368;28;20075;-62
2021/06/27 07:48:19;;;;;;;7.45;3.90;;;716.80;1638.40;;;;;;5075394;28;20025;-62
2021/06/27 07:50:46;;;;;;;4.97;4.03;;;716.80;1638.40;;;;;;5075448;28;20013;-63
2021/06/27 07:53:11;;;;;;;4.50;3.70;;;716.80;1612.80;;;;;;5074922;28;20028;-62
2021/06/27 07:55:37;;;;;;;5.60;4.28;;;716.80;1587.20;;;;;;5074950;28;20032;-63
2021/06/27 07:58:04;;;;;;;5.82;4.35;;;716.80;1638.40;;;;;;5075291;28;20031;-64
2021/06/27 08:00:30;;;;;;;4.18;3.78;;;692.00;1612.80;;;;;;5074918;28;20037;-61
2021/06/27 08:02:57;;;;;;;3.83;3.40;;;716.80;1612.80;;;;;;5075001;28;20020;-62
2021/06/27 08:05:23;;;;;;;4.65;3.78;;;716.90;1587.20;;;;;;5074793;28;20470;-61
2021/06/27 08:07:49;;;;;;;4.78;3.90;;;717.00;1612.80;;;;;;5062073;28;20095;-64
2021/06/27 08:10:14;;;;;;;5.30;3.55;;;717.00;1638.40;;;;;;5054817;28;20025;-62
2021/06/27 08:12:41;;;;;;;3.45;3.15;;;717.20;1587.20;;;;;;5054488;28;20027;-62
2021/06/27 08:15:09;;;;;;;5.38;3.90;;;717.20;1561.60;;;;;;5054448;28;20033;-62
2021/06/27 08:17:35;;;;;;;3.65;2.90;;;717.40;1561.60;;;;;;5054503;28;20021;-62
2021/06/27 08:20:04;;;;;;;5.45;3.70;;;717.60;1433.60;;;;;;5054374;28;20029;-63
2021/06/27 08:22:29;;;;;;;4.25;3.35;;;717.70;1510.40;;;;;;5064001;28;20476;-63
2021/06/27 08:24:55;;;;;;;3.50;3.17;;;742.50;1536.00;;;;;;5069747;28;20029;-63
2021/06/27 08:27:21;;;;;;;3.40;2.75;;;742.50;1459.20;;;;;;5056312;28;20124;-61
2021/06/27 08:29:47;;;;;;;5.30;2.65;;;742.70;1459.20;;;;;;5054418;28;20532;-63
2021/06/27 08:32:12;;;;;;;4.55;2.80;;;742.80;1382.40;;;;;;5053964;28;20029;-62
2021/06/27 08:34:38;;;;;;;3.97;2.85;;;742.90;1382.40;;;;;;5036021;28;20052;-60
2021/06/27 08:37:04;;;;;;;4.57;2.80;;;743.00;1382.40;;;;;;5054385;28;20074;-61
2021/06/27 08:39:30;;;;;;;4.18;2.70;;;742.90;1356.80;;;;;;5053356;28;20035;-61
2021/06/27 08:41:56;;;;;;;4.65;2.92;;;743.00;1331.20;;;;;;5053249;28;20052;-61
2021/06/27 08:44:22;;;;;;;4.25;3.00;;;743.10;1356.80;;;;;;5054191;28;20069;-62
2021/06/27 08:46:49;;;;;;;3.97;3.03;;;743.00;1356.80;;;;;;5064672;28;20116;-61
2021/06/27 08:49:15;;;;;;;2.95;2.63;;;743.10;1356.80;;;;;;5063094;28;20462;-61
2021/06/27 08:51:41;;;;;;;3.33;2.80;;;743.00;1331.20;;;;;;5061730;28;20021;-61
2021/06/27 08:54:08;;;;;;;4.00;2.22;;;743.00;1356.80;;;;;;5059688;28;20457;-61
2021/06/27 08:56:35;;;;;;;2.40;2.03;;;742.90;1254.40;;;;;;5061555;28;20021;-61
2021/06/27 08:59:00;;;;;;;3.78;2.38;;;743.00;1280.00;;;;;;5044041;28;20052;-60
2021/06/27 09:01:26;;;;;;;2.92;2.20;;;743.00;1305.60;;;;;;5059975;28;20166;-61
2021/06/27 09:03:55;;;;;;;3.88;2.17;;;743.10;1280.00;;;;;;5060375;28;20024;-61
2021/06/27 09:06:26;;;;;;;2.90;2.55;;;743.10;1280.00;;;;;;5068674;28;20047;-63
2021/06/27 09:09:12;;;;;;;5.07;2.55;;;768.00;1305.60;;;;;;5068334;28;20028;-61
2021/06/27 09:11:39;;;;;;;4.82;2.40;;;768.00;1280.00;;;;;;5055700;28;20077;-62
2021/06/27 09:14:25;;;;;;;3.22;2.40;;;768.30;1331.20;;;;;;5058533;28;20028;-63
2021/06/27 09:17:04;;;;;;;3.03;2.40;;;768.50;1280.00;;;;;;5062902;28;20025;-62
2021/06/27 09:19:30;;;;;;;3.60;2.38;;;768.70;1254.40;;;;;;5062531;28;20044;-61
2021/06/27 09:22:11;;;;;;;3.15;2.60;;;768.40;1228.80;;;;;;5058310;28;20053;-59
2021/06/27 09:24:37;;;;;;;2.30;2.10;;;768.30;1254.40;;;;;;5064699;28;20481;-61
2021/06/27 09:27:24;;;;;;;4.30;2.20;;;768.70;1228.80;;;;;;5062167;28;20067;-61
2021/06/27 09:29:51;;;;;;;3.78;2.25;;;768.50;1203.20;;;;;;5064379;28;20024;-61
2021/06/27 09:32:22;;;;;;;3.15;2.20;;;793.60;1228.80;;;;;;5073073;28;20032;-61
2021/06/27 09:34:49;;;;;;;2.92;2.45;;;793.80;1203.20;;;;;;5066231;28;20462;-62
2021/06/27 09:37:25;;;;;;;4.18;2.10;;;793.80;1203.20;;;;;;5053355;28;20035;-61
2021/06/27 09:40:02;;;;;;;3.85;2.10;;;793.60;1203.20;;;;;;5052819;28;20116;-61
2021/06/27 09:42:30;;;;;;;2.83;2.30;;;793.60;1177.60;;;;;;5052595;28;20049;-61
2021/06/27 09:45:04;;;;;;;3.42;2.33;;;793.60;1203.20;;;;;;5055812;28;20047;-61
2021/06/27 09:47:30;;;;;;;2.72;2.28;;;794.00;1203.20;;;;;;5057200;28;20045;-62
2021/06/27 09:49:56;;;;;;;2.90;2.10;;;794.20;1152.00;;;;;;5057592;28;20090;-60
2021/06/27 09:52:39;;;;;;;4.13;2.30;;;794.50;1126.40;;;;;;5056510;28;20024;-58
2021/06/27 09:55:10;;;;;;;2.50;2.20;;;794.50;1152.00;;;;;;5056816;28;20094;-58
2021/06/27 09:57:36;;;;;;;2.97;2.40;;;819.20;1126.40;;;;;;5056971;28;20025;-58
2021/06/27 10:00:24;;;;;;;2.60;2.40;;;819.20;1177.60;;;;;;5057025;28;20040;-58
2021/06/27 10:03:01;;;;;;;2.60;2.28;;;819.50;1177.60;;;;;;5055666;28;20466;-58
2021/06/27 10:05:27;;;;;;;3.20;1.80;;;819.50;1100.80;;;;;;5076088;28;20070;-58
2021/06/27 10:07:53;;;;;;;2.63;2.00;;;819.70;1075.20;;;;;;5076478;28;20036;-58
2021/06/27 10:10:19;;;;;;;3.55;2.00;;;819.80;1075.20;;;;;;5076241;28;20029;-58
2021/06/27 10:12:45;;;;;;;4.03;2.20;;;820.00;1126.40;;;;;;5076498;28;20028;-57
2021/06/27 10:15:15;;;;;;;2.30;2.10;;;819.90;1075.20;;;;;;5076619;28;20100;-59
2021/06/27 10:17:43;;;;;;;4.60;2.10;;;820.00;1049.60;;;;;;5069977;28;20528;-57
2021/06/27 10:20:11;;;;;;;2.60;1.90;;;844.80;1075.20;;;;;;5075866;28;20501;-58
2021/06/27 10:22:38;;;;;;;3.03;1.95;;;820.10;1049.60;;;;;;5076680;28;20027;-58
2021/06/27 10:25:06;;;;;;;2.92;2.00;;;844.80;1049.60;;;;;;5076566;28;20070;-57
2021/06/27 10:27:33;;;;;;;4.07;2.50;;;844.90;1049.60;;;;;;5076447;28;20023;-57
2021/06/27 10:30:00;;;;;;;3.20;2.53;;;845.10;1049.60;;;;;;5076662;28;20066;-58
2021/06/27 10:32:26;;;;;;;2.67;2.20;;;845.20;1024.00;;;;;;5076352;28;20467;-58
2021/06/27 10:34:55;;;;;;;2.67;2.03;;;845.10;1049.60;;;;;;5076547;28;20029;-57
2021/06/27 10:37:32;;;;;;;2.65;2.10;;;845.10;1024.00;;;;;;5066391;28;20032;-58
2021/06/27 10:40:08;;;;;;;3.85;2.25;;;845.30;1049.60;;;;;;5065707;28;20124;-58
2021/06/27 10:42:49;;;;;;;2.83;1.88;;;845.30;1024.00;;;;;;5064889;28;20112;-57
2021/06/27 10:45:20;;;;;;;2.83;1.92;;;845.50;1024.00;;;;;;5065769;28;20134;-58
2021/06/27 10:47:46;;;;;;;2.30;2.10;;;845.50;1024.00;;;;;;5067086;28;20104;-57
2021/06/27 10:50:14;;;;;;;2.45;2.10;;;845.60;1024.00;;;;;;5072755;28;20064;-57
2021/06/27 10:52:55;;;;;;;2.10;1.90;;;845.60;998.40;;;;;;5064503;28;20024;-58
2021/06/27 10:55:41;;;;;;;3.58;2.20;;;845.70;998.40;;;;;;5066816;28;20390;-57
2021/06/27 10:58:17;;;;;;;3.90;2.20;;;870.40;998.40;;;;;;5064679;28;20048;-58
2021/06/27 11:00:55;;;;;;;2.42;2.00;;;845.60;998.40;;;;;;5064007;28;20549;-58
2021/06/27 11:03:42;;;;;;;2.30;1.95;;;845.60;1024.00;;;;;;5063120;28;20524;-58
2021/06/27 11:06:14;;;;;;;3.08;1.90;;;845.70;1024.00;;;;;;5059748;28;20021;-57
2021/06/27 11:08:42;;;;;;;2.95;2.10;;;870.60;998.40;;;;;;5065528;28;20491;-58
2021/06/27 11:11:14;;;;;;;2.33;2.00;;;870.60;998.40;;;;;;5064588;28;20348;-57
2021/06/27 11:13:42;;;;;;;3.10;2.03;;;870.50;972.80;;;;;;5040341;28;20497;-57
2021/06/27 11:16:11;;;;;;;2.53;2.10;;;870.60;998.40;;;;;;5055922;28;20421;-57
2021/06/27 11:18:49;;;;;;;4.80;2.00;;;870.70;972.80;;;;;;5055310;28;20035;-57
2021/06/27 11:21:34;;;;;;;3.85;2.17;;;870.70;972.80;;;;;;5055308;28;20040;-57
2021/06/27 11:24:03;;;;;;;2.45;2.03;;;870.90;972.80;;;;;;5055537;28;20466;-57
2021/06/27 11:26:38;;;;;;;2.50;2.30;;;870.60;972.80;;;;;;5055443;28;20356;-57
2021/06/27 11:29:30;;;;;;;4.15;2.40;;;870.60;947.20;;;;;;5055599;28;20028;-58
2021/06/27 11:32:15;;;;;;;3.15;2.30;;;870.80;947.20;;;;;;4939373;29;20031;-57
2021/06/27 11:34:58;;;;;;;2.72;2.42;;;870.80;972.80;;;;;;4955451;29;20024;-54
2021/06/27 11:37:24;;;;;;;2.50;2.30;;;870.90;947.20;;;;;;4955378;29;20437;-55
2021/06/27 11:39:55;;;;;;;3.88;2.40;;;870.90;947.20;;;;;;4954988;29;20086;-55
2021/06/27 11:42:26;;;;;;;2.60;2.30;;;871.00;921.60;;;;;;4954935;29;20504;-55
2021/06/27 11:45:09;;;;;;;4.75;3.03;;;870.80;972.80;;;;;;4955180;29;20028;-55
2021/06/27 11:47:40;;;;;;;2.35;2.00;;;870.80;972.80;;;;;;4938125;28;20393;-55
2021/06/27 11:50:36;;;;;;;5.50;2.20;;;871.00;972.80;;;;;;4959788;28;20027;-56
2021/06/27 11:53:12;;;;;;;2.25;2.03;;;870.90;947.20;;;;;;4957115;28;20038;-56
2021/06/27 11:55:40;;;;;;;2.38;2.10;;;871.10;972.80;;;;;;4974274;28;20166;-56
2021/06/27 11:58:17;;;;;;;3.35;2.40;;;871.20;947.20;;;;;;4974192;28;20050;-56
2021/06/27 12:00:46;;;;;;;2.65;2.30;;;871.20;921.60;;;;;;4957938;28;20069;-56
2021/06/27 12:03:20;;;;;;;2.40;2.20;;;871.30;921.60;;;;;;4966027;28;20528;-56
2021/06/27 12:06:01;;;;;;;2.58;2.25;;;896.00;947.20;;;;;;4964008;28;20023;-56
2021/06/27 12:08:28;;;;;;;2.20;1.90;;;896.20;921.60;;;;;;4995949;28;20025;-55
2021/06/27 12:10:56;;;;;;;4.05;2.25;;;896.40;921.60;;;;;;5063134;28;20031;-55
2021/06/27 12:13:24;;;;;;;3.17;2.30;;;896.50;896.00;;;;;;5062438;28;20106;-55
2021/06/27 12:15:52;;;;;;;2.80;2.28;;;896.40;896.00;;;;;;5061532;28;20486;-56
2021/06/27 12:18:23;;;;;;;2.50;2.25;;;896.70;896.00;;;;;;5045125;28;20033;-55
2021/06/27 12:20:54;;;;;;;3.65;2.20;;;896.80;870.40;;;;;;5062315;28;20460;-56
2021/06/27 12:23:28;;;;;;;2.42;2.10;;;896.60;870.40;;;;;;5063244;28;20101;-56